Time;durP1;ratioP1;P1;durP2;ratioP2;P2;SDS_P1;SDS_P2;PMS_P1;PMS_P2;Temp;Humidity;BMP_temperature;BMP_pressure;BME280_temperature;BME280_humidity;BME280_pressure;Samples;Min_cycle;Max_cycle;Signal;HPM_P1;HPM_P2
2022/08/15 00:01:24;;;;;;;15.65;11.15;;;28.00;99.90;;;;;;4176748;28;20111;-66
2022/08/15 00:03:33;;;;;;;15.23;10.98;;;28.10;99.90;;;;;;4161146;28;20053;-65
2022/08/15 00:06:00;;;;;;;22.15;12.57;;;28.10;99.90;;;;;;4199629;28;20055;-66
2022/08/15 00:08:30;;;;;;;15.25;11.05;;;28.10;99.90;;;;;;4211859;28;20075;-66
2022/08/15 00:10:59;;;;;;;17.38;12.50;;;28.20;99.90;;;;;;4198018;28;20045;-66
2022/08/15 00:13:30;;;;;;;13.80;11.65;;;28.10;99.90;;;;;;4196094;28;20048;-66
2022/08/15 00:15:47;;;;;;;15.45;12.20;;;28.20;99.90;;;;;;4206637;28;20040;-66
2022/08/15 00:17:53;;;;;;;16.75;11.88;;;28.30;99.90;;;;;;4201642;28;20102;-66
2022/08/15 00:19:58;;;;;;;13.73;11.63;;;28.30;99.90;;;;;;4202920;28;20044;-66
2022/08/15 00:22:08;;;;;;;16.33;11.93;;;28.30;99.90;;;;;;4208101;28;20673;-66
2022/08/15 00:24:25;;;;;;;17.83;12.55;;;28.40;99.90;;;;;;4211266;28;20035;-67
2022/08/15 00:26:34;;;;;;;19.27;13.05;;;28.40;99.90;;;;;;4212038;28;20043;-66
2022/08/15 00:28:58;;;;;;;13.48;12.02;;;28.40;99.90;;;;;;4211791;28;20040;-67
2022/08/15 00:31:05;;;;;;;15.85;12.00;;;28.30;99.90;;;;;;4195938;28;20079;-66
2022/08/15 00:33:13;;;;;;;15.18;11.25;;;28.40;99.90;;;;;;4195260;28;20044;-66
2022/08/15 00:35:36;;;;;;;16.90;11.13;;;28.40;99.90;;;;;;4194797;28;20048;-66
2022/08/15 00:37:42;;;;;;;11.63;10.10;;;28.50;99.90;;;;;;4194108;28;20603;-66
2022/08/15 00:40:08;;;;;;;12.50;10.02;;;28.50;99.90;;;;;;4202004;28;20313;-66
2022/08/15 00:42:23;;;;;;;16.05;10.27;;;28.60;99.90;;;;;;4211650;28;20040;-70
2022/08/15 00:44:34;;;;;;;13.18;10.98;;;28.60;99.90;;;;;;4209635;28;20092;-67
2022/08/15 00:47:05;;;;;;;12.68;10.20;;;28.60;99.90;;;;;;4194919;28;20807;-68
2022/08/15 00:49:14;;;;;;;15.55;10.48;;;28.70;99.90;;;;;;4196247;28;20044;-68
2022/08/15 00:51:44;;;;;;;12.70;9.23;;;28.70;99.90;;;;;;4207742;28;20075;-67
2022/08/15 00:54:08;;;;;;;18.33;9.10;;;28.70;99.90;;;;;;4210478;28;20093;-67
2022/08/15 00:56:40;;;;;;;15.55;9.23;;;28.70;99.90;;;;;;4175805;28;20092;-67
2022/08/15 00:58:53;;;;;;;10.82;8.25;;;28.70;99.90;;;;;;4175651;28;20774;-66
2022/08/15 01:00:58;;;;;;;11.40;8.30;;;28.70;99.90;;;;;;4188402;28;20041;-67
2022/08/15 01:03:11;;;;;;;12.13;8.50;;;28.80;99.90;;;;;;4192959;28;20435;-67
2022/08/15 01:05:20;;;;;;;12.13;8.75;;;28.90;99.90;;;;;;4160168;28;20095;-67
2022/08/15 01:07:27;;;;;;;11.90;8.60;;;28.90;99.90;;;;;;4192905;28;20717;-71
2022/08/15 01:09:37;;;;;;;11.82;9.00;;;28.90;99.90;;;;;;4192767;28;20059;-72
2022/08/15 01:12:02;;;;;;;12.52;8.43;;;28.90;99.90;;;;;;4192186;28;20041;-70
2022/08/15 01:14:07;;;;;;;16.40;9.15;;;28.90;99.90;;;;;;4192359;28;20055;-73
2022/08/15 01:16:38;;;;;;;12.30;9.65;;;28.80;99.90;;;;;;4175750;28;20049;-72
2022/08/15 01:18:45;;;;;;;13.07;9.60;;;28.80;99.90;;;;;;4192794;28;20639;-69
2022/08/15 01:20:55;;;;;;;10.05;8.35;;;28.90;99.90;;;;;;4175790;28;20053;-74
2022/08/15 01:23:25;;;;;;;11.43;8.23;;;28.90;99.90;;;;;;4192412;28;20101;-74
2022/08/15 01:26:00;;;;;;;11.40;8.70;;;29.00;99.90;;;;;;4176129;28;20060;-74
2022/08/15 01:28:35;;;;;;;14.80;8.98;;;29.00;99.90;;;;;;4175984;28;20083;-68
2022/08/15 01:31:03;;;;;;;12.45;9.00;;;29.10;99.90;;;;;;4192095;28;20412;-68
2022/08/15 01:33:13;;;;;;;13.07;9.80;;;29.20;99.90;;;;;;4175559;28;20081;-68
2022/08/15 01:35:21;;;;;;;13.38;8.90;;;29.20;99.90;;;;;;4208509;28;20051;-67
2022/08/15 01:37:26;;;;;;;13.68;10.13;;;29.10;99.90;;;;;;4213201;28;20150;-67
2022/08/15 01:40:08;;;;;;;17.08;10.27;;;29.10;99.90;;;;;;4158571;28;20447;-67
2022/08/15 01:42:37;;;;;;;16.77;9.75;;;29.10;99.90;;;;;;4161400;28;20076;-66
2022/08/15 01:45:03;;;;;;;14.95;9.30;;;29.20;99.90;;;;;;4170270;28;20053;-67
2022/08/15 01:47:19;;;;;;;12.93;9.90;;;29.20;99.90;;;;;;4156549;28;20435;-67
2022/08/15 01:49:35;;;;;;;12.52;9.82;;;29.30;99.90;;;;;;4161688;28;20597;-67
2022/08/15 01:51:46;;;;;;;12.85;10.10;;;29.30;99.90;;;;;;4156637;28;20124;-68
2022/08/15 01:54:04;;;;;;;12.60;8.75;;;29.40;99.90;;;;;;4166264;28;20579;-68
2022/08/15 01:56:29;;;;;;;16.60;9.55;;;29.40;99.90;;;;;;4157421;28;20061;-68
2022/08/15 01:58:42;;;;;;;12.52;9.63;;;29.50;99.90;;;;;;4175044;28;20123;-68
2022/08/15 02:00:57;;;;;;;21.70;9.63;;;29.50;99.90;;;;;;4174931;28;20051;-68
2022/08/15 02:03:01;;;;;;;14.35;9.10;;;29.60;99.90;;;;;;4143508;28;20050;-68
2022/08/15 02:05:09;;;;;;;16.67;9.68;;;29.50;99.90;;;;;;4142062;28;20049;-68
2022/08/15 02:07:19;;;;;;;13.85;9.38;;;29.60;99.90;;;;;;4173128;28;20140;-68
2022/08/15 02:09:31;;;;;;;14.40;9.33;;;29.50;99.90;;;;;;4159097;28;20057;-68
2022/08/15 02:11:56;;;;;;;15.23;9.27;;;29.60;99.90;;;;;;4220530;28;20132;-67
2022/08/15 02:14:08;;;;;;;16.33;9.60;;;29.70;99.90;;;;;;4211093;28;20040;-68
2022/08/15 02:16:35;;;;;;;14.63;8.70;;;29.70;99.90;;;;;;4196122;28;20119;-68
2022/08/15 02:18:44;;;;;;;9.90;7.93;;;29.80;99.90;;;;;;4211445;28;20052;-67
2022/08/15 02:20:49;;;;;;;17.17;9.20;;;29.90;99.90;;;;;;4209700;28;20047;-68
2022/08/15 02:22:55;;;;;;;14.57;10.20;;;29.90;99.90;;;;;;4210917;28;20048;-69
2022/08/15 02:25:02;;;;;;;14.80;10.10;;;29.90;99.90;;;;;;4209803;28;20036;-69
2022/08/15 02:27:07;;;;;;;12.25;9.38;;;30.00;99.90;;;;;;4210473;28;20078;-68
2022/08/15 02:29:13;;;;;;;12.52;9.50;;;29.90;99.90;;;;;;4209676;28;20044;-68
2022/08/15 02:31:24;;;;;;;13.32;9.40;;;30.00;99.90;;;;;;4208728;28;20487;-68
2022/08/15 02:33:38;;;;;;;12.48;9.77;;;30.10;99.90;;;;;;4207516;28;20055;-68
2022/08/15 02:35:51;;;;;;;14.50;9.80;;;30.00;99.90;;;;;;4209616;28;20105;-68
2022/08/15 02:38:01;;;;;;;14.73;10.30;;;30.10;99.90;;;;;;4209830;28;20131;-68
2022/08/15 02:40:16;;;;;;;16.00;11.32;;;30.10;99.90;;;;;;4209465;28;20659;-68
2022/08/15 02:42:46;;;;;;;13.00;9.85;;;30.00;99.90;;;;;;4196510;28;20056;-68
2022/08/15 02:44:53;;;;;;;13.45;9.52;;;30.10;99.90;;;;;;4226554;28;20056;-68
2022/08/15 02:47:00;;;;;;;14.45;9.60;;;30.10;99.90;;;;;;4213486;28;20051;-68
2022/08/15 02:49:14;;;;;;;12.82;10.18;;;30.20;99.90;;;;;;4197496;28;20045;-67
2022/08/15 02:51:22;;;;;;;13.18;10.00;;;30.30;99.90;;;;;;4212411;28;20510;-68
2022/08/15 02:53:27;;;;;;;15.80;11.52;;;30.30;99.90;;;;;;4212691;28;20880;-68
2022/08/15 02:55:32;;;;;;;16.90;10.82;;;30.10;99.90;;;;;;4212449;28;20039;-68
2022/08/15 02:57:37;;;;;;;14.10;10.32;;;30.20;99.90;;;;;;4212795;28;20091;-67
2022/08/15 03:00:09;;;;;;;16.88;11.20;;;30.30;99.90;;;;;;4212659;28;20075;-68
2022/08/15 03:02:26;;;;;;;18.05;11.50;;;30.30;99.90;;;;;;4213571;28;20426;-68
2022/08/15 03:04:35;;;;;;;13.63;10.60;;;30.40;99.90;;;;;;4212714;28;20651;-68
2022/08/15 03:06:43;;;;;;;16.98;10.68;;;30.30;99.90;;;;;;4212425;28;20479;-67
2022/08/15 03:08:51;;;;;;;13.45;9.70;;;30.40;99.90;;;;;;4212894;28;20052;-68
2022/08/15 03:10:58;;;;;;;13.50;9.98;;;30.40;99.90;;;;;;4213466;28;20147;-67
2022/08/15 03:13:10;;;;;;;12.98;9.95;;;30.30;99.90;;;;;;4212268;28;20040;-67
2022/08/15 03:15:17;;;;;;;14.82;9.52;;;30.30;99.90;;;;;;4210770;28;20047;-68
2022/08/15 03:17:24;;;;;;;17.70;10.48;;;30.20;99.90;;;;;;4211850;28;20097;-69
2022/08/15 03:19:31;;;;;;;11.95;10.20;;;30.10;99.90;;;;;;4208245;28;20045;-68
2022/08/15 03:21:36;;;;;;;18.63;11.52;;;30.10;99.90;;;;;;4192687;28;20079;-67
2022/08/15 03:23:48;;;;;;;13.70;10.27;;;30.20;99.90;;;;;;4213347;28;20048;-68
2022/08/15 03:25:59;;;;;;;17.45;9.93;;;30.40;99.90;;;;;;4204050;28;20044;-68
2022/08/15 03:28:07;;;;;;;16.38;9.95;;;30.10;99.90;;;;;;4210687;28;20482;-68
2022/08/15 03:30:30;;;;;;;14.13;9.10;;;30.00;99.90;;;;;;4211350;28;20571;-68
2022/08/15 03:32:52;;;;;;;16.70;9.05;;;30.10;99.90;;;;;;4213404;28;20108;-68
2022/08/15 03:35:02;;;;;;;12.70;9.75;;;30.20;99.90;;;;;;4211489;28;20044;-71
2022/08/15 03:37:14;;;;;;;16.48;9.88;;;30.10;99.90;;;;;;4227058;28;20694;-71
2022/08/15 03:39:20;;;;;;;13.23;8.82;;;30.00;99.90;;;;;;4213062;28;20032;-71
2022/08/15 03:41:28;;;;;;;13.65;9.93;;;30.00;99.90;;;;;;4213158;28;20116;-71
2022/08/15 03:43:37;;;;;;;14.07;9.40;;;29.90;99.90;;;;;;4213372;28;20043;-71
2022/08/15 03:45:50;;;;;;;18.30;9.70;;;29.90;99.90;;;;;;4212071;28;20062;-71
2022/08/15 03:48:01;;;;;;;14.23;9.20;;;29.90;99.90;;;;;;4228101;28;20440;-71
2022/08/15 03:50:07;;;;;;;12.23;8.23;;;29.80;99.90;;;;;;4211610;28;20044;-71
2022/08/15 03:53:06;;;;;;;14.13;9.13;;;29.90;99.90;;;;;;4198938;28;20051;-71
2022/08/15 03:55:20;;;;;;;12.48;8.60;;;29.80;99.90;;;;;;4244432;27;20051;-71
2022/08/15 03:57:27;;;;;;;12.48;9.32;;;30.00;99.90;;;;;;4211143;28;20142;-71
2022/08/15 03:59:53;;;;;;;14.15;8.55;;;30.10;99.90;;;;;;4211274;28;20055;-71
2022/08/15 04:02:00;;;;;;;14.80;8.02;;;29.90;99.90;;;;;;4211333;28;20100;-71
2022/08/15 04:04:06;;;;;;;13.57;7.93;;;30.10;99.90;;;;;;4211707;28;20069;-71
2022/08/15 04:06:25;;;;;;;12.65;7.38;;;30.30;99.90;;;;;;4211818;28;20055;-71
2022/08/15 04:08:34;;;;;;;17.88;7.28;;;30.50;99.90;;;;;;4211671;28;20052;-71
2022/08/15 04:11:01;;;;;;;9.57;7.18;;;30.60;99.90;;;;;;4211063;28;20052;-71
2022/08/15 04:13:10;;;;;;;11.82;6.07;;;30.60;99.90;;;;;;4211605;28;20090;-71
2022/08/15 04:15:17;;;;;;;12.50;7.00;;;30.50;99.90;;;;;;4228467;28;20051;-71
2022/08/15 04:17:22;;;;;;;11.10;6.30;;;30.60;99.90;;;;;;4211581;28;20105;-71
2022/08/15 04:19:48;;;;;;;9.88;6.50;;;30.50;99.90;;;;;;4227626;28;20407;-71
2022/08/15 04:22:14;;;;;;;9.90;5.95;;;30.50;99.90;;;;;;4211505;28;20102;-71
2022/08/15 04:24:39;;;;;;;11.02;6.15;;;30.60;99.90;;;;;;4211504;28;20090;-71
2022/08/15 04:26:48;;;;;;;11.65;5.97;;;30.60;99.90;;;;;;4211410;28;20137;-71
2022/08/15 04:28:57;;;;;;;12.00;5.85;;;30.70;99.90;;;;;;4212344;28;20051;-71
2022/08/15 04:31:16;;;;;;;9.38;5.90;;;30.90;99.90;;;;;;4210756;28;20540;-71
2022/08/15 04:33:24;;;;;;;10.23;5.90;;;31.00;99.90;;;;;;4194680;28;20040;-71
2022/08/15 04:35:55;;;;;;;11.05;6.13;;;31.00;99.90;;;;;;4176484;28;20400;-71
2022/08/15 04:38:00;;;;;;;9.18;5.82;;;31.00;99.90;;;;;;4176868;28;20072;-71
2022/08/15 04:40:08;;;;;;;10.88;5.88;;;31.20;99.90;;;;;;4176210;28;20466;-71
2022/08/15 04:42:49;;;;;;;7.45;5.47;;;31.30;99.90;;;;;;4127552;28;20125;-71
2022/08/15 04:44:54;;;;;;;11.23;5.50;;;31.40;99.90;;;;;;4143534;28;20594;-71
2022/08/15 04:47:00;;;;;;;7.97;5.47;;;31.40;99.90;;;;;;4144091;28;20108;-72
2022/08/15 04:49:07;;;;;;;9.05;5.45;;;31.40;99.90;;;;;;4143996;28;20050;-71
2022/08/15 04:51:13;;;;;;;10.00;5.32;;;31.30;99.90;;;;;;4134548;28;20054;-71
2022/08/15 04:53:21;;;;;;;11.50;6.03;;;31.20;99.90;;;;;;4127632;28;20054;-71
2022/08/15 04:55:35;;;;;;;;;;;31.30;99.90;;;;;;4140127;28;20108;-71
2022/08/15 04:57:49;;;;;;;11.90;5.55;;;31.30;99.90;;;;;;4111119;28;19922;-71
2022/08/15 04:59:58;;;;;;;9.98;5.47;;;31.40;99.90;;;;;;4127152;28;20536;-72
2022/08/15 05:02:29;;;;;;;8.32;4.78;;;31.60;99.90;;;;;;4139592;28;20532;-71
2022/08/15 05:04:54;;;;;;;6.15;3.85;;;31.70;99.90;;;;;;4127759;28;20054;-72
2022/08/15 05:06:59;;;;;;;7.60;3.80;;;31.80;99.90;;;;;;4140807;28;20049;-72
2022/08/15 05:09:11;;;;;;;5.72;3.55;;;31.90;99.90;;;;;;4111050;28;20146;-72
2022/08/15 05:11:18;;;;;;;5.70;3.97;;;32.00;99.90;;;;;;4159714;28;20169;-72
2022/08/15 05:13:32;;;;;;;7.85;4.40;;;32.00;99.90;;;;;;4160457;28;20156;-72
2022/08/15 05:15:40;;;;;;;7.30;3.80;;;31.90;99.90;;;;;;4175779;28;20061;-72
2022/08/15 05:17:58;;;;;;;9.30;3.50;;;31.90;99.90;;;;;;4153575;28;20049;-70
2022/08/15 05:20:03;;;;;;;4.47;3.63;;;31.70;99.90;;;;;;4187240;28;20074;-73
2022/08/15 05:22:09;;;;;;;6.70;3.63;;;31.60;99.90;;;;;;4195122;28;20618;-74
2022/08/15 05:24:14;;;;;;;10.82;4.50;;;31.70;99.90;;;;;;4211902;28;20774;-73
2022/08/15 05:26:35;;;;;;;7.05;3.83;;;31.80;99.90;;;;;;4196863;28;20542;-72
2022/08/15 05:29:06;;;;;;;9.30;3.58;;;31.80;99.90;;;;;;4210663;28;20097;-73
2022/08/15 05:31:12;;;;;;;8.60;3.90;;;31.90;99.90;;;;;;4210179;28;20048;-66
2022/08/15 05:33:22;;;;;;;9.43;3.83;;;32.00;99.90;;;;;;4201941;28;20085;-69
2022/08/15 05:35:53;;;;;;;9.13;3.50;;;32.00;99.90;;;;;;4191918;28;20052;-71
2022/08/15 05:38:03;;;;;;;5.78;3.63;;;32.00;99.70;;;;;;4192953;28;20156;-70
2022/08/15 05:40:31;;;;;;;7.70;3.70;;;32.10;98.60;;;;;;4175569;28;20056;-70
2022/08/15 05:42:45;;;;;;;6.97;3.20;;;32.10;98.70;;;;;;4192091;28;20059;-69
2022/08/15 05:45:06;;;;;;;5.35;3.25;;;32.40;98.60;;;;;;4176081;28;20133;-70
2022/08/15 05:47:29;;;;;;;8.27;3.80;;;32.20;98.80;;;;;;4176233;28;20727;-69
2022/08/15 05:49:54;;;;;;;5.70;3.92;;;32.50;99.00;;;;;;4159431;28;20077;-70
2022/08/15 05:52:47;;;;;;;9.15;4.30;;;32.40;98.00;;;;;;4175596;28;20603;-70
2022/08/15 05:55:26;;;;;;;7.72;3.28;;;32.30;98.60;;;;;;4175215;28;20107;-71
2022/08/15 05:58:03;;;;;;;6.70;3.55;;;32.30;98.70;;;;;;4175597;28;20730;-70
2022/08/15 06:00:31;;;;;;;5.95;3.45;;;32.50;98.00;;;;;;4158456;28;20041;-69
2022/08/15 06:02:41;;;;;;;7.68;3.28;;;32.60;97.80;;;;;;4142896;28;20514;-69
2022/08/15 06:05:16;;;;;;;6.68;3.20;;;32.80;97.40;;;;;;4169861;28;20123;-70
2022/08/15 06:07:23;;;;;;;5.85;3.30;;;32.90;97.20;;;;;;4175599;28;20521;-70
2022/08/15 06:10:05;;;;;;;6.75;3.33;;;32.80;97.30;;;;;;4175144;28;20067;-70
2022/08/15 06:12:32;;;;;;;7.20;3.28;;;33.10;96.90;;;;;;4160172;28;20041;-70
2022/08/15 06:14:45;;;;;;;6.90;3.00;;;33.20;95.50;;;;;;4174929;28;20044;-70
2022/08/15 06:16:53;;;;;;;7.65;3.10;;;33.00;95.20;;;;;;4175598;28;20046;-69
2022/08/15 06:19:05;;;;;;;6.07;2.75;;;33.10;95.60;;;;;;4175565;28;20057;-70
2022/08/15 06:21:38;;;;;;;8.38;3.10;;;33.10;94.80;;;;;;4177215;28;20132;-69
2022/08/15 06:24:25;;;;;;;4.93;2.78;;;33.10;94.90;;;;;;4178724;28;20044;-70
2022/08/15 06:27:03;;;;;;;7.10;2.90;;;33.10;95.20;;;;;;4178582;28;20045;-69
2022/08/15 06:29:40;;;;;;;4.38;2.85;;;33.20;96.10;;;;;;4178933;28;20044;-69
2022/08/15 06:31:50;;;;;;;6.97;3.08;;;33.30;95.90;;;;;;4178524;28;20053;-69
2022/08/15 06:34:10;;;;;;;;;;;33.20;95.30;;;;;;4179176;28;20048;-69
2022/08/15 06:36:43;;;;;;;6.15;2.78;;;32.90;95.20;;;;;;4195436;28;20448;-68
2022/08/15 06:39:04;;;;;;;6.57;3.08;;;32.70;95.50;;;;;;4209935;28;20135;-69
2022/08/15 06:41:43;;;;;;;5.60;2.38;;;32.90;95.70;;;;;;4212388;28;20139;-68
2022/08/15 06:44:09;;;;;;;6.70;2.45;;;33.20;94.50;;;;;;4216142;28;20039;-69
2022/08/15 06:46:33;;;;;;;5.47;2.60;;;33.40;94.90;;;;;;4210442;28;20055;-68
2022/08/15 06:48:54;;;;;;;5.77;3.03;;;33.60;94.80;;;;;;4196074;28;20057;-68
2022/08/15 06:51:13;;;;;;;5.63;2.42;;;33.70;93.80;;;;;;4212485;28;20310;-69
2022/08/15 06:53:32;;;;;;;4.82;2.45;;;33.80;93.60;;;;;;4180409;28;20055;-69
2022/08/15 06:56:03;;;;;;;7.35;2.85;;;33.90;93.40;;;;;;4212783;28;20491;-70
2022/08/15 06:58:14;;;;;;;4.93;2.35;;;33.60;92.80;;;;;;4212958;28;20048;-69
2022/08/15 07:00:54;;;;;;;5.93;3.05;;;33.60;93.60;;;;;;4194515;28;20049;-69
2022/08/15 07:03:26;;;;;;;6.93;2.60;;;33.30;94.00;;;;;;4194152;28;20057;-69
2022/08/15 07:05:54;;;;;;;5.82;2.58;;;33.50;94.20;;;;;;4194583;28;20052;-69
2022/08/15 07:08:33;;;;;;;4.72;2.90;;;33.60;93.70;;;;;;4195044;28;20094;-69
2022/08/15 07:10:55;;;;;;;4.05;2.30;;;33.60;93.90;;;;;;4194364;28;20060;-69
2022/08/15 07:13:24;;;;;;;5.53;2.20;;;33.70;94.00;;;;;;4191997;28;20059;-69
2022/08/15 07:16:00;;;;;;;8.68;2.90;;;33.50;93.10;;;;;;4194882;28;20075;-70
2022/08/15 07:18:14;;;;;;;4.30;2.25;;;33.60;93.50;;;;;;4211505;28;20066;-70
2022/08/15 07:20:22;;;;;;;6.68;2.20;;;33.80;93.50;;;;;;4194333;28;20075;-71
2022/08/15 07:22:45;;;;;;;7.07;2.80;;;33.60;93.30;;;;;;4194624;28;20090;-70
2022/08/15 07:24:56;;;;;;;5.00;2.85;;;33.70;93.50;;;;;;4194759;28;20083;-70
2022/08/15 07:27:15;;;;;;;6.13;2.50;;;33.80;93.40;;;;;;4194735;28;20099;-69
2022/08/15 07:29:51;;;;;;;4.15;2.17;;;33.60;92.70;;;;;;4194183;28;20044;-70
2022/08/15 07:32:23;;;;;;;4.70;2.42;;;33.40;93.40;;;;;;4193831;28;20110;-70
2022/08/15 07:34:38;;;;;;;6.30;2.40;;;33.20;94.00;;;;;;4181490;28;20048;-70
2022/08/15 07:36:56;;;;;;;4.57;2.30;;;33.50;94.10;;;;;;4177928;28;20049;-70
2022/08/15 07:39:24;;;;;;;5.18;2.60;;;33.50;94.30;;;;;;4208739;28;20701;-70
2022/08/15 07:41:53;;;;;;;5.25;2.70;;;33.50;94.50;;;;;;4211978;28;20079;-70
2022/08/15 07:44:14;;;;;;;6.07;2.33;;;33.40;94.20;;;;;;4228749;28;20117;-70
2022/08/15 07:46:39;;;;;;;4.90;2.20;;;33.30;94.70;;;;;;4211294;28;20048;-70
2022/08/15 07:49:07;;;;;;;4.22;2.50;;;33.10;94.50;;;;;;4211927;28;20127;-70
2022/08/15 07:51:29;;;;;;;5.30;2.50;;;33.10;94.50;;;;;;4211640;28;20083;-70
2022/08/15 07:53:59;;;;;;;6.15;2.35;;;33.20;94.50;;;;;;4212015;28;20446;-70
2022/08/15 07:56:16;;;;;;;5.68;2.30;;;33.20;94.00;;;;;;4207578;28;20044;-70
2022/08/15 07:58:42;;;;;;;5.18;2.38;;;33.20;93.40;;;;;;4213385;28;20727;-69
2022/08/15 08:00:52;;;;;;;3.05;2.20;;;33.20;93.20;;;;;;4210754;28;20098;-70
2022/08/15 08:03:24;;;;;;;4.43;2.00;;;33.40;93.50;;;;;;4211626;28;20095;-69
2022/08/15 08:06:07;;;;;;;8.10;2.22;;;33.40;92.70;;;;;;4211341;28;20095;-69
2022/08/15 08:08:56;;;;;;;4.15;1.70;;;33.50;92.80;;;;;;4197994;28;20138;-69
2022/08/15 08:11:38;;;;;;;4.55;1.75;;;33.50;92.50;;;;;;4211250;28;20059;-69
2022/08/15 08:14:15;;;;;;;3.63;1.42;;;33.40;92.10;;;;;;4209911;28;20390;-69
2022/08/15 08:17:01;;;;;;;3.65;1.60;;;33.30;91.00;;;;;;4225705;28;20105;-70
2022/08/15 08:19:15;;;;;;;6.50;1.60;;;33.40;91.80;;;;;;4211328;28;20048;-70
2022/08/15 08:21:26;;;;;;;4.40;1.90;;;33.40;91.60;;;;;;4211132;28;20094;-70
2022/08/15 08:24:00;;;;;;;4.15;1.90;;;33.50;91.80;;;;;;4195067;28;20123;-70
2022/08/15 08:26:42;;;;;;;4.00;1.90;;;33.40;91.70;;;;;;4212300;28;20123;-69
2022/08/15 08:29:00;;;;;;;4.95;2.05;;;33.60;91.80;;;;;;4228337;28;20122;-70
2022/08/15 08:31:38;;;;;;;5.15;2.42;;;33.70;92.00;;;;;;4211110;28;20510;-70
2022/08/15 08:34:39;;;;;;;2.83;1.90;;;33.60;92.10;;;;;;4212598;28;20171;-70
2022/08/15 08:37:18;;;;;;;5.15;2.03;;;33.70;91.90;;;;;;4212051;28;20048;-69
2022/08/15 08:39:46;;;;;;;19.02;11.93;;;33.70;91.80;;;;;;4212620;28;20046;-70
2022/08/15 08:42:07;;;;;;;18.02;9.73;;;33.50;91.90;;;;;;4212281;28;20474;-70
2022/08/15 08:44:54;;;;;;;10.70;5.68;;;33.50;92.40;;;;;;4210977;28;20660;-69
2022/08/15 08:47:40;;;;;;;11.98;7.70;;;33.60;92.60;;;;;;4211958;28;20054;-70
2022/08/15 08:50:21;;;;;;;7.28;4.90;;;33.70;92.60;;;;;;4212195;28;20392;-69
2022/08/15 08:52:58;;;;;;;6.05;2.55;;;33.60;92.90;;;;;;4212192;28;20105;-68
2022/08/15 08:55:23;;;;;;;7.45;4.50;;;33.50;92.10;;;;;;4212291;28;20482;-69
2022/08/15 08:57:59;;;;;;;5.35;3.00;;;33.50;92.50;;;;;;4212372;28;20046;-68
2022/08/15 09:00:14;;;;;;;3.92;2.17;;;33.50;92.50;;;;;;4212083;28;20135;-69
2022/08/15 09:02:34;;;;;;;5.82;2.20;;;33.60;92.50;;;;;;4211866;28;20075;-69
2022/08/15 09:05:31;;;;;;;5.93;2.90;;;33.50;92.60;;;;;;4195316;28;20490;-69
2022/08/15 09:07:52;;;;;;;5.70;2.13;;;33.40;93.00;;;;;;4199348;28;20046;-69
2022/08/15 09:10:00;;;;;;;5.03;2.42;;;33.40;93.20;;;;;;4211948;28;20063;-69
2022/08/15 09:14:38;;;;;;;5.30;2.15;;;33.40;93.00;;;;;;4211729;28;20043;-69
2022/08/15 09:17:13;;;;;;;5.60;1.95;;;33.40;93.00;;;;;;4174100;28;20044;-69
2022/08/15 09:19:56;;;;;;;3.38;2.00;;;33.30;93.70;;;;;;4175733;28;20047;-69
2022/08/15 09:22:04;;;;;;;4.13;1.90;;;33.00;94.60;;;;;;4159837;28;20538;-68
2022/08/15 09:24:09;;;;;;;4.72;2.30;;;32.80;94.70;;;;;;4161350;28;20052;-68
2022/08/15 09:26:56;;;;;;;7.63;4.38;;;32.80;94.50;;;;;;4175932;28;20041;-68
2022/08/15 09:29:26;;;;;;;6.75;3.88;;;32.80;94.50;;;;;;4153647;28;20050;-68
2022/08/15 09:31:32;;;;;;;6.15;3.22;;;32.70;94.90;;;;;;4159494;28;20099;-69
2022/08/15 09:34:09;;;;;;;10.57;2.70;;;32.60;95.10;;;;;;4169153;28;20554;-68
2022/08/15 09:37:04;;;;;;;4.45;2.50;;;32.50;95.60;;;;;;4162330;28;20124;-69
2022/08/15 09:39:27;;;;;;;5.03;2.45;;;32.10;95.80;;;;;;4176181;28;20533;-69
2022/08/15 09:42:13;;;;;;;8.40;2.50;;;31.60;96.40;;;;;;4175385;28;20091;-69
2022/08/15 09:44:58;;;;;;;6.40;2.50;;;31.40;96.80;;;;;;4175763;28;20597;-67
2022/08/15 09:47:34;;;;;;;4.25;2.30;;;31.60;96.90;;;;;;4176236;28;20600;-69
2022/08/15 09:50:29;;;;;;;12.15;8.90;;;31.50;95.90;;;;;;4174957;28;20364;-68
2022/08/15 09:53:17;;;;;;;7.32;2.80;;;31.20;96.20;;;;;;4175768;28;20072;-68
2022/08/15 09:55:46;;;;;;;5.70;2.30;;;30.80;98.20;;;;;;4204258;28;20059;-71
2022/08/15 09:57:57;;;;;;;3.50;2.00;;;30.20;99.10;;;;;;4215045;28;20048;-68
2022/08/15 10:00:17;;;;;;;6.78;2.33;;;30.00;99.60;;;;;;4213150;28;20043;-68
2022/08/15 10:02:27;;;;;;;3.58;1.85;;;30.20;99.60;;;;;;4214783;28;20044;-69
2022/08/15 10:05:14;;;;;;;6.65;2.60;;;30.20;99.00;;;;;;4195819;28;20052;-69
2022/08/15 10:07:41;;;;;;;5.80;3.42;;;30.40;98.90;;;;;;4214899;28;20056;-70
2022/08/15 10:10:09;;;;;;;7.95;3.40;;;30.70;99.50;;;;;;4214810;28;20075;-69
2022/08/15 10:12:22;;;;;;;15.30;9.38;;;30.90;99.50;;;;;;4212809;28;20048;-69
2022/08/15 10:15:01;;;;;;;17.88;11.65;;;31.10;99.90;;;;;;4213617;28;20036;-69
2022/08/15 10:17:37;;;;;;;12.50;8.57;;;31.20;99.80;;;;;;4214708;28;20044;-70
2022/08/15 10:20:34;;;;;;;10.40;5.18;;;31.30;99.50;;;;;;4227130;28;20074;-70
2022/08/15 10:23:00;;;;;;;9.15;3.85;;;31.30;99.50;;;;;;4213855;28;20725;-69
2022/08/15 10:25:33;;;;;;;7.35;3.60;;;31.20;99.80;;;;;;4214584;28;20040;-67
2022/08/15 10:28:02;;;;;;;5.72;2.85;;;31.10;99.90;;;;;;4213896;28;20039;-70
2022/08/15 10:30:30;;;;;;;5.32;2.55;;;31.00;99.90;;;;;;4193599;28;20106;-69
2022/08/15 10:32:53;;;;;;;3.63;1.98;;;31.00;99.90;;;;;;4176109;28;20531;-72
2022/08/15 10:35:36;;;;;;;7.32;2.50;;;30.90;99.80;;;;;;4193632;28;20060;-69
2022/08/15 10:38:02;;;;;;;4.78;2.00;;;30.90;99.50;;;;;;4142656;28;20049;-69
2022/08/15 10:40:28;;;;;;;7.93;2.92;;;30.50;99.90;;;;;;4191586;28;20054;-68
2022/08/15 10:43:01;;;;;;;11.68;3.60;;;30.30;99.90;;;;;;4176228;28;20463;-68
2022/08/15 10:45:41;;;;;;;13.98;3.72;;;30.10;99.90;;;;;;4193016;28;20527;-70
2022/08/15 10:48:27;;;;;;;11.20;3.95;;;30.20;99.90;;;;;;4176631;28;20060;-68
2022/08/15 10:51:16;;;;;;;11.15;3.08;;;30.00;99.90;;;;;;4192598;28;20174;-68
2022/08/15 10:53:47;;;;;;;6.75;2.65;;;29.80;99.90;;;;;;4175838;28;20147;-68
2022/08/15 10:56:17;;;;;;;11.80;2.88;;;29.90;99.90;;;;;;4192292;28;20049;-69
2022/08/15 10:58:42;;;;;;;4.88;2.30;;;30.00;99.90;;;;;;4190954;28;20045;-68
2022/08/15 11:00:58;;;;;;;6.82;2.08;;;30.10;99.90;;;;;;4191803;28;20438;-68
2022/08/15 11:03:05;;;;;;;6.32;2.28;;;30.10;99.90;;;;;;4206512;28;20659;-69
2022/08/15 11:05:20;;;;;;;5.57;1.98;;;30.10;99.90;;;;;;4208935;28;20036;-69
2022/08/15 11:07:35;;;;;;;9.55;2.25;;;30.00;99.90;;;;;;4212721;28;20047;-69
2022/08/15 11:09:43;;;;;;;5.20;1.63;;;30.00;99.90;;;;;;4213637;28;20127;-70
2022/08/15 11:12:02;;;;;;;6.45;2.00;;;29.90;99.90;;;;;;4212198;28;20091;-70
2022/08/15 11:14:24;;;;;;;7.07;2.00;;;29.70;99.90;;;;;;4213047;28;20056;-70
2022/08/15 11:16:36;;;;;;;8.15;1.80;;;29.70;99.90;;;;;;4211160;28;20763;-69
2022/08/15 11:18:52;;;;;;;4.13;1.50;;;29.80;99.90;;;;;;4205880;28;20044;-69
2022/08/15 11:21:27;;;;;;;4.13;1.60;;;29.70;99.90;;;;;;4213160;28;20052;-69
2022/08/15 11:23:41;;;;;;;3.05;1.50;;;29.70;99.90;;;;;;4176366;28;20774;-69
2022/08/15 11:25:48;;;;;;;4.85;2.65;;;29.60;99.90;;;;;;4208508;28;20062;-70
2022/08/15 11:28:11;;;;;;;7.30;2.30;;;28.70;99.90;;;;;;4193921;28;20414;-69
2022/08/15 11:30:38;;;;;;;3.53;1.60;;;28.30;99.90;;;;;;4207613;28;20048;-70
2022/08/15 11:32:48;;;;;;;3.47;1.40;;;27.80;99.90;;;;;;4209597;28;20039;-71
2022/08/15 11:35:28;;;;;;;7.47;1.60;;;27.60;99.90;;;;;;4209161;28;20478;-71
2022/08/15 11:37:46;;;;;;;4.78;1.50;;;26.70;99.90;;;;;;4210618;28;20482;-70
2022/08/15 11:40:07;;;;;;;3.75;1.50;;;26.90;99.90;;;;;;4212176;28;20113;-69
2022/08/15 11:42:18;;;;;;;6.43;1.80;;;27.60;99.90;;;;;;4226033;28;20044;-67
2022/08/15 11:44:56;;;;;;;2.70;1.30;;;28.00;99.90;;;;;;4209496;28;20048;-67
2022/08/15 11:47:15;;;;;;;3.13;1.00;;;28.30;99.90;;;;;;4210067;28;20044;-68
2022/08/15 11:49:34;;;;;;;4.40;1.30;;;28.30;99.90;;;;;;4210421;28;20185;-68
2022/08/15 11:51:46;;;;;;;1.83;0.90;;;28.50;99.90;;;;;;4211368;28;20043;-68
2022/08/15 11:54:23;;;;;;;2.47;1.10;;;28.50;99.90;;;;;;4207324;28;20036;-67
2022/08/15 11:56:57;;;;;;;1.85;0.90;;;28.40;99.90;;;;;;4212702;28;20627;-67
2022/08/15 11:59:32;;;;;;;4.18;1.35;;;28.40;99.90;;;;;;4208606;28;20086;-67
2022/08/15 12:01:37;;;;;;;2.42;1.30;;;28.50;99.90;;;;;;4208389;28;20060;-67
2022/08/15 12:04:12;;;;;;;3.17;1.05;;;28.40;99.90;;;;;;4207988;28;20778;-67
2022/08/15 12:06:40;;;;;;;4.20;1.40;;;28.40;99.90;;;;;;4160851;28;20100;-67
2022/08/15 12:09:21;;;;;;;3.00;1.00;;;28.50;99.90;;;;;;4174997;28;20106;-67
2022/08/15 12:11:47;;;;;;;2.83;1.08;;;28.50;99.90;;;;;;4174611;28;20053;-68